sensor_id;sensor_type;location;lat;lon;timestamp;temperature;humidity
25825;DHT22;13658;44.534;18.694;2023-04-01T00:00:57;14.90;99.90
25825;DHT22;13658;44.534;18.694;2023-04-01T00:03:24;14.90;99.90
25825;DHT22;13658;44.534;18.694;2023-04-01T00:05:51;14.80;99.90
25825;DHT22;13658;44.534;18.694;2023-04-01T00:08:17;14.70;99.90
25825;DHT22;13658;44.534;18.694;2023-04-01T00:10:43;14.50;99.90
25825;DHT22;13658;44.534;18.694;2023-04-01T00:13:10;14.40;99.90
25825;DHT22;13658;44.534;18.694;2023-04-01T00:15:36;14.30;99.90
25825;DHT22;13658;44.534;18.694;2023-04-01T00:18:02;14.20;99.90
25825;DHT22;13658;44.534;18.694;2023-04-01T00:20:29;14.10;99.90
25825;DHT22;13658;44.534;18.694;2023-04-01T00:22:55;14.10;99.90
25825;DHT22;13658;44.534;18.694;2023-04-01T00:25:22;14.10;99.90
25825;DHT22;13658;44.534;18.694;2023-04-01T00:27:48;14.10;99.90
25825;DHT22;13658;44.534;18.694;2023-04-01T00:30:15;14.10;99.90
25825;DHT22;13658;44.534;18.694;2023-04-01T00:32:41;14.10;99.90
25825;DHT22;13658;44.534;18.694;2023-04-01T00:35:07;14.10;99.90
25825;DHT22;13658;44.534;18.694;2023-04-01T00:37:38;14.00;99.90
25825;DHT22;13658;44.534;18.694;2023-04-01T00:40:24;14.00;99.90
25825;DHT22;13658;44.534;18.694;2023-04-01T00:42:51;14.00;99.90
25825;DHT22;13658;44.534;18.694;2023-04-01T00:45:41;13.90;99.90
25825;DHT22;13658;44.534;18.694;2023-04-01T00:48:18;13.90;99.90
25825;DHT22;13658;44.534;18.694;2023-04-01T00:50:52;13.90;99.90
25825;DHT22;13658;44.534;18.694;2023-04-01T00:53:19;13.90;99.90
25825;DHT22;13658;44.534;18.694;2023-04-01T00:55:54;13.90;99.90
25825;DHT22;13658;44.534;18.694;2023-04-01T00:58:24;13.90;99.90
25825;DHT22;13658;44.534;18.694;2023-04-01T01:00:53;13.90;99.90
25825;DHT22;13658;44.534;18.694;2023-04-01T01:03:20;13.90;99.90
25825;DHT22;13658;44.534;18.694;2023-04-01T01:08:38;13.70;99.90
25825;DHT22;13658;44.534;18.694;2023-04-01T01:11:08;13.60;99.90
25825;DHT22;13658;44.534;18.694;2023-04-01T01:16:27;13.40;99.90
25825;DHT22;13658;44.534;18.694;2023-04-01T01:27:25;12.70;99.90
25825;DHT22;13658;44.534;18.694;2023-04-01T01:32:51;12.40;99.90
25825;DHT22;13658;44.534;18.694;2023-04-01T01:35:28;12.40;99.90
25825;DHT22;13658;44.534;18.694;2023-04-01T01:38:03;12.30;99.90
25825;DHT22;13658;44.534;18.694;2023-04-01T01:40:32;12.50;99.90
25825;DHT22;13658;44.534;18.694;2023-04-01T01:43:05;12.40;99.90
25825;DHT22;13658;44.534;18.694;2023-04-01T01:45:34;12.50;99.90
25825;DHT22;13658;44.534;18.694;2023-04-01T01:48:02;12.40;99.90
25825;DHT22;13658;44.534;18.694;2023-04-01T01:50:29;12.50;99.90
25825;DHT22;13658;44.534;18.694;2023-04-01T01:53:07;12.50;99.90
25825;DHT22;13658;44.534;18.694;2023-04-01T01:55:38;12.50;99.90
25825;DHT22;13658;44.534;18.694;2023-04-01T02:01:04;12.40;99.90
25825;DHT22;13658;44.534;18.694;2023-04-01T02:03:35;12.40;99.90
25825;DHT22;13658;44.534;18.694;2023-04-01T02:06:07;12.40;99.90
25825;DHT22;13658;44.534;18.694;2023-04-01T02:08:41;12.40;99.90
25825;DHT22;13658;44.534;18.694;2023-04-01T02:11:11;12.20;99.90
25825;DHT22;13658;44.534;18.694;2023-04-01T02:16:36;12.20;99.90
25825;DHT22;13658;44.534;18.694;2023-04-01T02:19:04;12.00;99.90
25825;DHT22;13658;44.534;18.694;2023-04-01T02:21:34;11.90;99.90
25825;DHT22;13658;44.534;18.694;2023-04-01T02:24:04;11.70;99.90
25825;DHT22;13658;44.534;18.694;2023-04-01T02:26:32;11.70;99.90
25825;DHT22;13658;44.534;18.694;2023-04-01T02:29:00;11.70;99.90
25825;DHT22;13658;44.534;18.694;2023-04-01T02:31:27;11.70;99.90
25825;DHT22;13658;44.534;18.694;2023-04-01T02:33:53;11.50;99.90
25825;DHT22;13658;44.534;18.694;2023-04-01T02:39:39;11.50;99.90
25825;DHT22;13658;44.534;18.694;2023-04-01T02:42:05;11.40;99.90
25825;DHT22;13658;44.534;18.694;2023-04-01T02:44:31;11.40;99.90
25825;DHT22;13658;44.534;18.694;2023-04-01T02:46:57;11.40;99.90
25825;DHT22;13658;44.534;18.694;2023-04-01T02:49:24;11.40;99.90
25825;DHT22;13658;44.534;18.694;2023-04-01T02:51:50;11.40;99.90
25825;DHT22;13658;44.534;18.694;2023-04-01T02:54:18;11.40;99.90
25825;DHT22;13658;44.534;18.694;2023-04-01T02:56:44;11.30;99.90
25825;DHT22;13658;44.534;18.694;2023-04-01T02:59:11;11.30;99.90
25825;DHT22;13658;44.534;18.694;2023-04-01T03:01:37;11.40;99.90
25825;DHT22;13658;44.534;18.694;2023-04-01T03:04:04;11.40;99.90
25825;DHT22;13658;44.534;18.694;2023-04-01T03:06:30;11.50;99.90
25825;DHT22;13658;44.534;18.694;2023-04-01T03:08:56;11.40;99.90
25825;DHT22;13658;44.534;18.694;2023-04-01T03:11:23;11.40;99.90
25825;DHT22;13658;44.534;18.694;2023-04-01T03:13:49;11.40;99.90
25825;DHT22;13658;44.534;18.694;2023-04-01T03:16:15;11.30;99.90
25825;DHT22;13658;44.534;18.694;2023-04-01T03:18:41;11.30;99.90
25825;DHT22;13658;44.534;18.694;2023-04-01T03:21:36;11.30;99.90
25825;DHT22;13658;44.534;18.694;2023-04-01T03:24:02;11.30;99.90
25825;DHT22;13658;44.534;18.694;2023-04-01T03:26:29;11.40;99.90
25825;DHT22;13658;44.534;18.694;2023-04-01T03:28:55;11.30;99.90
25825;DHT22;13658;44.534;18.694;2023-04-01T03:31:22;11.40;99.90
25825;DHT22;13658;44.534;18.694;2023-04-01T03:33:52;11.40;99.90
25825;DHT22;13658;44.534;18.694;2023-04-01T03:36:18;11.40;99.90
25825;DHT22;13658;44.534;18.694;2023-04-01T03:38:45;11.50;99.90
25825;DHT22;13658;44.534;18.694;2023-04-01T03:41:15;11.40;99.90
25825;DHT22;13658;44.534;18.694;2023-04-01T03:43:43;11.40;99.90
25825;DHT22;13658;44.534;18.694;2023-04-01T03:46:09;11.20;99.90
25825;DHT22;13658;44.534;18.694;2023-04-01T03:48:36;11.30;99.90
25825;DHT22;13658;44.534;18.694;2023-04-01T03:51:07;11.40;99.90
25825;DHT22;13658;44.534;18.694;2023-04-01T03:53:33;11.30;99.90
25825;DHT22;13658;44.534;18.694;2023-04-01T03:56:06;11.20;99.90
25825;DHT22;13658;44.534;18.694;2023-04-01T03:58:34;11.10;99.90
25825;DHT22;13658;44.534;18.694;2023-04-01T04:01:01;11.00;99.90
25825;DHT22;13658;44.534;18.694;2023-04-01T04:03:28;11.10;99.90
25825;DHT22;13658;44.534;18.694;2023-04-01T04:05:54;11.20;99.90
25825;DHT22;13658;44.534;18.694;2023-04-01T04:08:22;11.10;99.90
25825;DHT22;13658;44.534;18.694;2023-04-01T04:10:54;11.20;99.90
25825;DHT22;13658;44.534;18.694;2023-04-01T04:13:21;11.20;99.90
25825;DHT22;13658;44.534;18.694;2023-04-01T04:15:54;11.20;99.90
25825;DHT22;13658;44.534;18.694;2023-04-01T04:18:20;11.10;99.90
25825;DHT22;13658;44.534;18.694;2023-04-01T04:20:46;11.00;99.90
25825;DHT22;13658;44.534;18.694;2023-04-01T04:23:14;11.00;99.90
25825;DHT22;13658;44.534;18.694;2023-04-01T04:25:41;10.90;99.90
25825;DHT22;13658;44.534;18.694;2023-04-01T04:28:07;10.80;99.90
25825;DHT22;13658;44.534;18.694;2023-04-01T04:30:34;10.70;99.90
25825;DHT22;13658;44.534;18.694;2023-04-01T04:33:02;10.80;99.90
25825;DHT22;13658;44.534;18.694;2023-04-01T04:35:28;10.80;99.90
25825;DHT22;13658;44.534;18.694;2023-04-01T04:37:55;10.90;99.90
25825;DHT22;13658;44.534;18.694;2023-04-01T04:40:22;10.80;99.90
25825;DHT22;13658;44.534;18.694;2023-04-01T04:42:48;10.80;99.90
25825;DHT22;13658;44.534;18.694;2023-04-01T04:45:15;10.90;99.90
25825;DHT22;13658;44.534;18.694;2023-04-01T04:47:50;10.90;99.90
25825;DHT22;13658;44.534;18.694;2023-04-01T04:50:17;10.80;99.90
25825;DHT22;13658;44.534;18.694;2023-04-01T04:52:43;10.80;99.90
25825;DHT22;13658;44.534;18.694;2023-04-01T04:55:09;10.80;99.90
25825;DHT22;13658;44.534;18.694;2023-04-01T04:57:35;10.90;99.90
25825;DHT22;13658;44.534;18.694;2023-04-01T05:00:01;10.80;99.90
25825;DHT22;13658;44.534;18.694;2023-04-01T05:02:56;10.80;99.90
25825;DHT22;13658;44.534;18.694;2023-04-01T05:05:22;10.80;99.90
25825;DHT22;13658;44.534;18.694;2023-04-01T05:07:49;10.80;99.90
25825;DHT22;13658;44.534;18.694;2023-04-01T05:10:15;10.80;99.90
25825;DHT22;13658;44.534;18.694;2023-04-01T05:12:41;10.90;99.90
25825;DHT22;13658;44.534;18.694;2023-04-01T05:15:09;10.90;99.90
25825;DHT22;13658;44.534;18.694;2023-04-01T05:17:36;10.90;99.90
25825;DHT22;13658;44.534;18.694;2023-04-01T05:20:03;10.90;99.90
25825;DHT22;13658;44.534;18.694;2023-04-01T05:22:30;10.90;99.90
25825;DHT22;13658;44.534;18.694;2023-04-01T05:24:55;11.00;99.90
25825;DHT22;13658;44.534;18.694;2023-04-01T05:27:22;11.10;99.90
25825;DHT22;13658;44.534;18.694;2023-04-01T05:29:48;11.20;99.90
25825;DHT22;13658;44.534;18.694;2023-04-01T05:32:34;11.20;99.90
25825;DHT22;13658;44.534;18.694;2023-04-01T05:35:00;11.30;99.90
25825;DHT22;13658;44.534;18.694;2023-04-01T05:37:26;11.30;99.90
25825;DHT22;13658;44.534;18.694;2023-04-01T05:39:52;11.20;99.90
25825;DHT22;13658;44.534;18.694;2023-04-01T05:42:18;11.10;99.90
25825;DHT22;13658;44.534;18.694;2023-04-01T05:44:44;11.00;99.90
25825;DHT22;13658;44.534;18.694;2023-04-01T05:47:30;11.00;99.90
25825;DHT22;13658;44.534;18.694;2023-04-01T05:49:56;11.00;99.90
25825;DHT22;13658;44.534;18.694;2023-04-01T05:52:22;11.00;99.90
25825;DHT22;13658;44.534;18.694;2023-04-01T05:54:48;10.90;99.90
25825;DHT22;13658;44.534;18.694;2023-04-01T05:57:14;10.80;99.90
25825;DHT22;13658;44.534;18.694;2023-04-01T05:59:41;10.80;99.90
25825;DHT22;13658;44.534;18.694;2023-04-01T06:02:08;10.80;99.90
25825;DHT22;13658;44.534;18.694;2023-04-01T06:04:39;10.70;99.90
25825;DHT22;13658;44.534;18.694;2023-04-01T06:07:15;10.70;99.90
25825;DHT22;13658;44.534;18.694;2023-04-01T06:09:42;10.70;99.90
25825;DHT22;13658;44.534;18.694;2023-04-01T06:12:18;10.80;99.90
25825;DHT22;13658;44.534;18.694;2023-04-01T06:15:20;10.70;99.90
25825;DHT22;13658;44.534;18.694;2023-04-01T06:20:42;10.90;99.90
25825;DHT22;13658;44.534;18.694;2023-04-01T06:23:41;10.90;99.90
25825;DHT22;13658;44.534;18.694;2023-04-01T06:27:01;10.90;99.90
25825;DHT22;13658;44.534;18.694;2023-04-01T06:35:08;11.30;99.90
25825;DHT22;13658;44.534;18.694;2023-04-01T06:50:01;11.20;99.90
25825;DHT22;13658;44.534;18.694;2023-04-01T06:53:25;11.20;99.90
25825;DHT22;13658;44.534;18.694;2023-04-01T06:56:17;11.20;99.90
25825;DHT22;13658;44.534;18.694;2023-04-01T06:59:02;11.20;99.90
25825;DHT22;13658;44.534;18.694;2023-04-01T07:01:44;11.20;99.90
25825;DHT22;13658;44.534;18.694;2023-04-01T07:04:16;11.20;99.90
25825;DHT22;13658;44.534;18.694;2023-04-01T07:06:45;11.20;99.90
25825;DHT22;13658;44.534;18.694;2023-04-01T07:09:18;11.10;99.90
25825;DHT22;13658;44.534;18.694;2023-04-01T07:13:12;10.90;99.90
25825;DHT22;13658;44.534;18.694;2023-04-01T07:15:58;10.80;99.90
25825;DHT22;13658;44.534;18.694;2023-04-01T07:18:44;11.00;99.90
25825;DHT22;13658;44.534;18.694;2023-04-01T07:21:24;10.90;99.90
25825;DHT22;13658;44.534;18.694;2023-04-01T07:23:56;10.80;99.90
25825;DHT22;13658;44.534;18.694;2023-04-01T07:26:36;10.80;99.90
25825;DHT22;13658;44.534;18.694;2023-04-01T07:29:10;10.80;99.90
25825;DHT22;13658;44.534;18.694;2023-04-01T07:40:32;10.70;99.90
25825;DHT22;13658;44.534;18.694;2023-04-01T07:45:41;10.70;99.90
25825;DHT22;13658;44.534;18.694;2023-04-01T07:48:33;10.70;99.90
25825;DHT22;13658;44.534;18.694;2023-04-01T07:56:51;10.50;99.90
25825;DHT22;13658;44.534;18.694;2023-04-01T07:59:57;10.50;99.90
25825;DHT22;13658;44.534;18.694;2023-04-01T08:05:25;10.50;99.90
25825;DHT22;13658;44.534;18.694;2023-04-01T08:11:08;10.30;99.90
25825;DHT22;13658;44.534;18.694;2023-04-01T08:17:14;10.30;99.90
25825;DHT22;13658;44.534;18.694;2023-04-01T08:23:14;10.30;99.90
25825;DHT22;13658;44.534;18.694;2023-04-01T08:25:59;10.30;99.90
25825;DHT22;13658;44.534;18.694;2023-04-01T08:28:43;10.20;99.90
25825;DHT22;13658;44.534;18.694;2023-04-01T08:31:41;10.10;99.90
25825;DHT22;13658;44.534;18.694;2023-04-01T08:34:16;10.10;99.90
25825;DHT22;13658;44.534;18.694;2023-04-01T08:39:55;10.00;99.90
25825;DHT22;13658;44.534;18.694;2023-04-01T08:48:43;9.90;99.90
25825;DHT22;13658;44.534;18.694;2023-04-01T09:00:30;10.00;99.90
25825;DHT22;13658;44.534;18.694;2023-04-01T09:14:34;10.00;99.90
25825;DHT22;13658;44.534;18.694;2023-04-01T09:31:51;9.90;99.90
25825;DHT22;13658;44.534;18.694;2023-04-01T09:43:34;9.40;99.90
25825;DHT22;13658;44.534;18.694;2023-04-01T09:46:32;9.40;99.90
25825;DHT22;13658;44.534;18.694;2023-04-01T10:26:29;9.40;99.90
25825;DHT22;13658;44.534;18.694;2023-04-01T10:38:13;9.50;99.90
25825;DHT22;13658;44.534;18.694;2023-04-01T10:41:11;9.40;99.90
25825;DHT22;13658;44.534;18.694;2023-04-01T10:56:50;9.90;99.90
25825;DHT22;13658;44.534;18.694;2023-04-01T11:06:29;9.80;99.90
25825;DHT22;13658;44.534;18.694;2023-04-01T11:20:53;9.40;99.90
25825;DHT22;13658;44.534;18.694;2023-04-01T11:23:50;9.50;99.90
25825;DHT22;13658;44.534;18.694;2023-04-01T11:44:22;10.60;99.90
25825;DHT22;13658;44.534;18.694;2023-04-01T11:55:23;10.90;99.90
25825;DHT22;13658;44.534;18.694;2023-04-01T11:58:01;10.90;99.90
25825;DHT22;13658;44.534;18.694;2023-04-01T12:04:00;10.90;99.90
25825;DHT22;13658;44.534;18.694;2023-04-01T12:09:29;10.70;99.90
25825;DHT22;13658;44.534;18.694;2023-04-01T12:23:16;10.50;99.90
25825;DHT22;13658;44.534;18.694;2023-04-01T12:28:48;10.40;99.90
25825;DHT22;13658;44.534;18.694;2023-04-01T12:47:27;10.60;99.90
25825;DHT22;13658;44.534;18.694;2023-04-01T12:53:33;10.50;99.90
25825;DHT22;13658;44.534;18.694;2023-04-01T12:56:59;10.50;99.90
25825;DHT22;13658;44.534;18.694;2023-04-01T13:02:30;10.40;99.90
25825;DHT22;13658;44.534;18.694;2023-04-01T13:11:13;10.40;99.90
25825;DHT22;13658;44.534;18.694;2023-04-01T13:16:33;10.50;99.90
25825;DHT22;13658;44.534;18.694;2023-04-01T13:21:50;10.60;99.90
25825;DHT22;13658;44.534;18.694;2023-04-01T13:33:04;11.30;99.90
25825;DHT22;13658;44.534;18.694;2023-04-01T13:36:08;11.60;99.90
25825;DHT22;13658;44.534;18.694;2023-04-01T13:39:15;11.60;99.90
25825;DHT22;13658;44.534;18.694;2023-04-01T13:49:59;12.00;99.90
25825;DHT22;13658;44.534;18.694;2023-04-01T13:55:22;12.10;99.90
25825;DHT22;13658;44.534;18.694;2023-04-01T14:06:18;12.00;99.90
25825;DHT22;13658;44.534;18.694;2023-04-01T14:12:01;12.30;99.90
25825;DHT22;13658;44.534;18.694;2023-04-01T14:17:57;12.30;99.90
25825;DHT22;13658;44.534;18.694;2023-04-01T14:20:29;12.30;99.90
25825;DHT22;13658;44.534;18.694;2023-04-01T14:25:58;12.60;99.90
25825;DHT22;13658;44.534;18.694;2023-04-01T14:31:30;12.80;99.90
25825;DHT22;13658;44.534;18.694;2023-04-01T14:34:24;12.80;99.90
25825;DHT22;13658;44.534;18.694;2023-04-01T14:37:19;12.80;99.90
25825;DHT22;13658;44.534;18.694;2023-04-01T14:40:27;12.90;99.90
25825;DHT22;13658;44.534;18.694;2023-04-01T14:50:54;12.50;99.90
25825;DHT22;13658;44.534;18.694;2023-04-01T14:53:34;12.60;99.90
25825;DHT22;13658;44.534;18.694;2023-04-01T14:56:04;12.70;99.90
25825;DHT22;13658;44.534;18.694;2023-04-01T15:04:47;12.50;99.90
25825;DHT22;13658;44.534;18.694;2023-04-01T15:13:36;12.30;99.90
25825;DHT22;13658;44.534;18.694;2023-04-01T15:24:03;12.30;99.90
25825;DHT22;13658;44.534;18.694;2023-04-01T15:29:39;12.30;99.90
25825;DHT22;13658;44.534;18.694;2023-04-01T15:32:16;12.20;99.90
25825;DHT22;13658;44.534;18.694;2023-04-01T15:34:45;12.20;99.90
25825;DHT22;13658;44.534;18.694;2023-04-01T15:45:55;12.30;99.90
25825;DHT22;13658;44.534;18.694;2023-04-01T15:54:14;12.60;99.90
25825;DHT22;13658;44.534;18.694;2023-04-01T15:56:55;12.70;99.90
25825;DHT22;13658;44.534;18.694;2023-04-01T16:02:49;12.70;99.90
25825;DHT22;13658;44.534;18.694;2023-04-01T16:05:36;12.80;99.90
25825;DHT22;13658;44.534;18.694;2023-04-01T16:14:09;12.70;99.90
25825;DHT22;13658;44.534;18.694;2023-04-01T16:22:26;12.80;99.90
25825;DHT22;13658;44.534;18.694;2023-04-01T16:28:16;12.80;99.90
25825;DHT22;13658;44.534;18.694;2023-04-01T16:31:00;12.70;99.90
25825;DHT22;13658;44.534;18.694;2023-04-01T16:33:37;12.70;99.90
25825;DHT22;13658;44.534;18.694;2023-04-01T16:41:46;12.60;99.90
25825;DHT22;13658;44.534;18.694;2023-04-01T16:44:20;12.60;99.90
25825;DHT22;13658;44.534;18.694;2023-04-01T16:46:51;12.50;99.90
25825;DHT22;13658;44.534;18.694;2023-04-01T16:49:40;12.60;99.90
25825;DHT22;13658;44.534;18.694;2023-04-01T16:59:48;12.30;99.90
25825;DHT22;13658;44.534;18.694;2023-04-01T17:02:22;12.20;99.90
25825;DHT22;13658;44.534;18.694;2023-04-01T17:05:16;12.00;99.90
25825;DHT22;13658;44.534;18.694;2023-04-01T17:16:06;11.40;99.90
25825;DHT22;13658;44.534;18.694;2023-04-01T17:24:45;11.00;99.90
25825;DHT22;13658;44.534;18.694;2023-04-01T17:27:46;11.00;99.90
25825;DHT22;13658;44.534;18.694;2023-04-01T17:30:28;10.90;99.90
25825;DHT22;13658;44.534;18.694;2023-04-01T17:36:15;10.70;99.90
25825;DHT22;13658;44.534;18.694;2023-04-01T17:52:46;10.00;99.90
25825;DHT22;13658;44.534;18.694;2023-04-01T18:13:18;9.40;99.90
25825;DHT22;13658;44.534;18.694;2023-04-01T18:15:44;9.40;99.90
25825;DHT22;13658;44.534;18.694;2023-04-01T18:21:27;9.30;99.90
25825;DHT22;13658;44.534;18.694;2023-04-01T18:24:06;9.20;99.90
25825;DHT22;13658;44.534;18.694;2023-04-01T18:26:41;9.30;99.90
25825;DHT22;13658;44.534;18.694;2023-04-01T18:32:21;9.40;99.90
25825;DHT22;13658;44.534;18.694;2023-04-01T18:37:32;9.50;99.90
25825;DHT22;13658;44.534;18.694;2023-04-01T18:46:00;9.70;99.90
25825;DHT22;13658;44.534;18.694;2023-04-01T18:51:36;9.80;99.90
25825;DHT22;13658;44.534;18.694;2023-04-01T18:54:30;9.80;99.90
25825;DHT22;13658;44.534;18.694;2023-04-01T18:57:17;9.80;99.90
25825;DHT22;13658;44.534;18.694;2023-04-01T18:59:53;9.90;99.90
25825;DHT22;13658;44.534;18.694;2023-04-01T19:05:20;9.90;99.90
25825;DHT22;13658;44.534;18.694;2023-04-01T19:07:54;9.90;99.90
25825;DHT22;13658;44.534;18.694;2023-04-01T19:25:01;9.70;99.90
25825;DHT22;13658;44.534;18.694;2023-04-01T19:33:27;9.90;99.90
25825;DHT22;13658;44.534;18.694;2023-04-01T19:35:58;9.80;99.90
25825;DHT22;13658;44.534;18.694;2023-04-01T19:38:39;9.90;99.90
25825;DHT22;13658;44.534;18.694;2023-04-01T19:41:36;9.80;99.90
25825;DHT22;13658;44.534;18.694;2023-04-01T19:44:17;9.80;99.90
25825;DHT22;13658;44.534;18.694;2023-04-01T19:47:02;9.70;99.90
25825;DHT22;13658;44.534;18.694;2023-04-01T19:49:53;9.60;99.90
25825;DHT22;13658;44.534;18.694;2023-04-01T20:03:44;9.50;99.90
25825;DHT22;13658;44.534;18.694;2023-04-01T20:09:23;9.40;99.90
25825;DHT22;13658;44.534;18.694;2023-04-01T20:11:57;9.20;99.90
25825;DHT22;13658;44.534;18.694;2023-04-01T20:14:50;9.10;99.90
25825;DHT22;13658;44.534;18.694;2023-04-01T20:17:32;9.10;99.90
25825;DHT22;13658;44.534;18.694;2023-04-01T20:30:59;8.70;99.90
25825;DHT22;13658;44.534;18.694;2023-04-01T20:33:46;8.50;99.90
25825;DHT22;13658;44.534;18.694;2023-04-01T20:36:36;8.40;99.90
25825;DHT22;13658;44.534;18.694;2023-04-01T20:52:06;8.30;99.90
25825;DHT22;13658;44.534;18.694;2023-04-01T20:54:42;8.20;99.90
25825;DHT22;13658;44.534;18.694;2023-04-01T20:57:16;8.20;99.90
25825;DHT22;13658;44.534;18.694;2023-04-01T21:02:48;8.20;99.90
25825;DHT22;13658;44.534;18.694;2023-04-01T21:13:25;7.80;99.90
25825;DHT22;13658;44.534;18.694;2023-04-01T21:52:28;6.80;99.90
25825;DHT22;13658;44.534;18.694;2023-04-01T22:00:32;6.60;99.90
25825;DHT22;13658;44.534;18.694;2023-04-01T22:11:29;6.80;99.90
25825;DHT22;13658;44.534;18.694;2023-04-01T22:14:09;6.80;99.90
25825;DHT22;13658;44.534;18.694;2023-04-01T22:22:21;6.40;99.90
25825;DHT22;13658;44.534;18.694;2023-04-01T22:25:03;6.20;99.90
25825;DHT22;13658;44.534;18.694;2023-04-01T22:30:06;5.90;99.90
25825;DHT22;13658;44.534;18.694;2023-04-01T22:40:45;6.00;99.90
25825;DHT22;13658;44.534;18.694;2023-04-01T22:43:33;6.10;99.90
25825;DHT22;13658;44.534;18.694;2023-04-01T22:46:31;6.00;99.90
25825;DHT22;13658;44.534;18.694;2023-04-01T22:49:12;5.90;99.90
25825;DHT22;13658;44.534;18.694;2023-04-01T22:51:45;5.90;99.90
25825;DHT22;13658;44.534;18.694;2023-04-01T22:57:12;5.90;99.90
25825;DHT22;13658;44.534;18.694;2023-04-01T22:59:46;6.00;99.90
25825;DHT22;13658;44.534;18.694;2023-04-01T23:02:23;5.90;99.90
25825;DHT22;13658;44.534;18.694;2023-04-01T23:04:57;6.00;99.90
25825;DHT22;13658;44.534;18.694;2023-04-01T23:07:35;6.00;99.90
25825;DHT22;13658;44.534;18.694;2023-04-01T23:10:49;6.00;99.90
25825;DHT22;13658;44.534;18.694;2023-04-01T23:13:36;6.00;99.90
25825;DHT22;13658;44.534;18.694;2023-04-01T23:16:04;6.00;99.90
25825;DHT22;13658;44.534;18.694;2023-04-01T23:27:07;5.40;99.90
25825;DHT22;13658;44.534;18.694;2023-04-01T23:29:37;5.30;99.90
25825;DHT22;13658;44.534;18.694;2023-04-01T23:32:14;5.20;99.90
25825;DHT22;13658;44.534;18.694;2023-04-01T23:34:47;5.30;99.90
25825;DHT22;13658;44.534;18.694;2023-04-01T23:37:14;5.30;99.90
25825;DHT22;13658;44.534;18.694;2023-04-01T23:39:46;5.40;99.90
25825;DHT22;13658;44.534;18.694;2023-04-01T23:44:46;5.30;99.90
25825;DHT22;13658;44.534;18.694;2023-04-01T23:47:17;5.30;99.90
25825;DHT22;13658;44.534;18.694;2023-04-01T23:49:59;5.40;99.90
25825;DHT22;13658;44.534;18.694;2023-04-01T23:52:30;5.30;99.90
25825;DHT22;13658;44.534;18.694;2023-04-01T23:55:08;5.20;99.90
25825;DHT22;13658;44.534;18.694;2023-04-01T23:57:38;5.20;99.90
